createdAt,value
2018-11-04T00:00:24.215Z,0.00
2018-11-04T00:01:24.243Z,0.00
2018-11-04T00:02:24.261Z,0.00
2018-11-04T00:03:24.285Z,0.00
2018-11-04T00:04:24.308Z,0.00
2018-11-04T00:05:24.331Z,0.00
2018-11-04T00:06:24.354Z,0.00
2018-11-04T00:07:24.377Z,0.00
2018-11-04T00:08:24.402Z,0.00
2018-11-04T00:09:24.425Z,0.00
2018-11-04T00:10:24.447Z,0.00
2018-11-04T00:11:24.474Z,0.00
2018-11-04T00:12:24.494Z,0.00
2018-11-04T00:13:24.729Z,0.00
2018-11-04T00:14:24.540Z,0.00
2018-11-04T00:15:24.563Z,0.00
2018-11-04T00:16:24.586Z,0.00
2018-11-04T00:17:24.611Z,0.00
2018-11-04T00:18:24.633Z,0.00
2018-11-04T00:19:24.656Z,0.00
2018-11-04T00:20:24.752Z,0.00
2018-11-04T00:21:24.703Z,0.00
2018-11-04T00:22:24.725Z,0.00
2018-11-04T00:23:24.749Z,0.00
2018-11-04T00:24:24.772Z,0.00
2018-11-04T00:25:24.796Z,0.00
2018-11-04T00:26:24.818Z,0.00
2018-11-04T00:27:24.856Z,0.00
2018-11-04T00:28:24.866Z,0.00
2018-11-04T00:29:24.888Z,0.00
2018-11-04T00:30:24.911Z,0.00
2018-11-04T00:31:24.935Z,0.00
2018-11-04T00:32:24.958Z,0.00
2018-11-04T00:33:24.982Z,0.00
2018-11-04T00:34:25.051Z,0.00
2018-11-04T00:35:25.027Z,0.00
2018-11-04T00:36:25.051Z,0.00
2018-11-04T00:37:25.074Z,0.00
2018-11-04T00:38:25.096Z,0.00
2018-11-04T00:39:25.120Z,0.00
2018-11-04T00:40:25.145Z,0.00
2018-11-04T00:41:25.218Z,0.00
2018-11-04T00:42:25.189Z,0.00
2018-11-04T00:43:25.217Z,0.00
2018-11-04T00:44:25.235Z,0.00
2018-11-04T00:45:25.371Z,0.00
2018-11-04T00:46:25.283Z,0.00
2018-11-04T00:47:25.306Z,0.00
2018-11-04T00:48:25.363Z,0.00
2018-11-04T00:49:25.351Z,0.00
2018-11-04T00:50:25.376Z,0.00
2018-11-04T00:51:25.458Z,0.00
2018-11-04T00:52:25.424Z,0.00
2018-11-04T00:53:25.444Z,0.00
2018-11-04T00:54:25.466Z,0.00
2018-11-04T00:55:25.490Z,0.00
2018-11-04T00:56:25.514Z,0.00
2018-11-04T00:57:25.537Z,0.00
2018-11-04T00:58:25.558Z,0.00
2018-11-04T00:59:25.582Z,0.00
2018-11-04T01:00:25.605Z,0.00
2018-11-04T01:01:25.656Z,0.00
2018-11-04T01:02:25.653Z,0.00
2018-11-04T01:03:25.674Z,0.00
2018-11-04T01:04:25.698Z,0.00
2018-11-04T01:05:25.721Z,0.00
2018-11-04T01:06:25.744Z,0.00
2018-11-04T01:07:25.792Z,0.00
2018-11-04T01:08:25.790Z,0.00
2018-11-04T01:09:25.814Z,0.00
2018-11-04T01:10:25.836Z,0.00
2018-11-04T01:11:25.861Z,0.00
2018-11-04T01:12:25.883Z,0.00
2018-11-04T01:13:25.906Z,0.00
2018-11-04T01:14:25.929Z,0.00
2018-11-04T01:15:25.951Z,0.00
2018-11-04T01:16:25.975Z,0.00
2018-11-04T01:17:25.998Z,0.00
2018-11-04T01:18:26.025Z,0.00
2018-11-04T01:19:26.045Z,0.00
2018-11-04T01:20:26.067Z,0.00
2018-11-04T01:21:26.089Z,0.00
2018-11-04T01:22:26.112Z,0.00
2018-11-04T01:23:26.135Z,0.00
2018-11-04T01:24:26.250Z,0.00
2018-11-04T01:25:26.182Z,0.00
2018-11-04T01:26:26.204Z,0.00
2018-11-04T01:27:26.231Z,0.00
2018-11-04T01:28:26.250Z,0.00
2018-11-04T01:29:26.275Z,0.00
2018-11-04T01:30:26.506Z,0.00
2018-11-04T01:31:26.319Z,0.00
2018-11-04T01:32:26.344Z,0.00
2018-11-04T01:33:26.368Z,0.00
2018-11-04T01:34:26.388Z,0.00
2018-11-04T01:35:26.447Z,0.00
2018-11-04T01:36:26.434Z,0.00
2018-11-04T01:37:26.458Z,0.00
2018-11-04T01:38:26.480Z,0.00
2018-11-04T01:39:26.503Z,0.00
2018-11-04T01:40:26.526Z,0.00
2018-11-04T01:41:26.550Z,0.00
2018-11-04T01:42:26.578Z,0.00
2018-11-04T01:43:26.599Z,0.00
2018-11-04T01:44:26.617Z,0.00
2018-11-04T01:45:26.642Z,0.00
2018-11-04T01:46:26.663Z,0.00
2018-11-04T01:47:26.686Z,0.00
2018-11-04T01:48:26.709Z,0.00
2018-11-04T01:49:26.733Z,0.00
2018-11-04T01:50:26.757Z,0.00
2018-11-04T01:51:26.778Z,0.00
2018-11-04T01:52:26.801Z,0.00
2018-11-04T01:53:26.827Z,0.00
2018-11-04T01:54:26.846Z,0.00
2018-11-04T01:55:26.869Z,0.00
2018-11-04T01:56:26.893Z,0.00
2018-11-04T01:57:26.916Z,0.00
2018-11-04T01:58:26.939Z,0.00
2018-11-04T01:59:26.962Z,0.00
2018-11-04T02:00:26.985Z,0.00
2018-11-04T02:01:27.008Z,0.00
2018-11-04T02:02:27.030Z,0.00
2018-11-04T02:03:27.053Z,0.00
2018-11-04T02:04:27.076Z,0.00
2018-11-04T02:05:27.103Z,0.00
2018-11-04T02:06:27.121Z,0.00
2018-11-04T02:07:27.145Z,0.00
2018-11-04T02:08:27.167Z,0.00
2018-11-04T02:09:27.191Z,0.00
2018-11-04T02:10:27.212Z,0.00
2018-11-04T02:11:27.239Z,0.00
2018-11-04T02:12:27.259Z,0.00
2018-11-04T02:13:27.282Z,0.00
2018-11-04T02:14:27.305Z,0.00
2018-11-04T02:15:27.329Z,0.00
2018-11-04T02:16:27.351Z,0.00
2018-11-04T02:17:27.375Z,0.00
2018-11-04T02:18:27.396Z,0.00
2018-11-04T02:19:27.419Z,0.00
2018-11-04T02:20:27.442Z,0.00
2018-11-04T02:21:27.468Z,0.00
2018-11-04T02:22:27.488Z,0.00
2018-11-04T02:23:27.511Z,0.00
2018-11-04T02:24:27.534Z,0.00
2018-11-04T02:25:27.559Z,0.00
2018-11-04T02:26:27.579Z,0.00
2018-11-04T02:27:27.602Z,0.00
2018-11-04T02:28:27.629Z,0.00
2018-11-04T02:29:27.648Z,0.00
2018-11-04T02:30:27.672Z,0.00
2018-11-04T02:31:27.697Z,0.00
2018-11-04T02:32:27.718Z,0.00
2018-11-04T02:33:27.740Z,0.00
2018-11-04T02:34:27.764Z,0.00
2018-11-04T02:35:27.786Z,0.00
2018-11-04T02:36:27.818Z,0.00
2018-11-04T02:37:27.832Z,0.00
2018-11-04T02:38:27.860Z,0.00
2018-11-04T02:39:27.877Z,0.00
2018-11-04T02:40:27.900Z,0.00
2018-11-04T02:41:27.924Z,0.00
2018-11-04T02:42:27.946Z,0.00
2018-11-04T02:43:27.969Z,0.00
2018-11-04T02:44:27.992Z,0.00
2018-11-04T02:45:28.015Z,0.00
2018-11-04T02:46:28.037Z,0.00
2018-11-04T02:47:28.063Z,0.00
2018-11-04T02:48:28.086Z,0.00
2018-11-04T02:49:28.107Z,0.00
2018-11-04T02:50:28.129Z,0.00
2018-11-04T02:51:28.152Z,0.00
2018-11-04T02:52:28.175Z,0.00
2018-11-04T02:53:28.198Z,0.00
2018-11-04T02:54:28.221Z,0.00
2018-11-04T02:55:28.243Z,0.00
2018-11-04T02:56:28.267Z,0.00
2018-11-04T02:57:28.289Z,0.00
2018-11-04T02:58:28.312Z,0.00
2018-11-04T02:59:28.335Z,0.00
2018-11-04T03:00:28.359Z,0.00
2018-11-04T03:01:28.385Z,0.00
2018-11-04T03:02:28.403Z,0.00
2018-11-04T03:03:28.430Z,0.00
2018-11-04T03:04:28.450Z,0.00
2018-11-04T03:05:28.474Z,0.00
2018-11-04T03:06:28.498Z,0.00
2018-11-04T03:07:28.529Z,0.00
2018-11-04T03:08:28.542Z,0.00
2018-11-04T03:09:28.565Z,0.00
2018-11-04T03:10:28.588Z,0.00
2018-11-04T03:11:28.613Z,0.00
2018-11-04T03:12:28.634Z,0.00
2018-11-04T03:13:28.657Z,0.00
2018-11-04T03:14:28.678Z,0.00
2018-11-04T03:15:28.703Z,0.00
2018-11-04T03:16:28.725Z,0.00
2018-11-04T03:17:28.748Z,0.00
2018-11-04T03:18:28.771Z,0.00
2018-11-04T03:19:28.794Z,0.00
2018-11-04T03:20:28.816Z,0.00
2018-11-04T03:21:28.840Z,0.00
2018-11-04T03:22:28.862Z,0.00
2018-11-04T03:23:28.884Z,0.00
2018-11-04T03:24:28.930Z,0.00
2018-11-04T03:25:28.933Z,0.00
2018-11-04T03:26:28.956Z,0.00
2018-11-04T03:27:28.976Z,0.00
2018-11-04T03:28:29.002Z,0.00
2018-11-04T03:29:29.023Z,0.00
2018-11-04T03:30:29.045Z,0.00
2018-11-04T03:31:29.077Z,0.00
2018-11-04T03:32:29.094Z,0.00
2018-11-04T03:33:29.118Z,0.00
2018-11-04T03:34:29.136Z,0.00
2018-11-04T03:35:29.160Z,0.00
2018-11-04T03:36:29.183Z,0.00
2018-11-04T03:37:29.205Z,0.00
2018-11-04T03:38:29.228Z,0.00
2018-11-04T03:39:29.251Z,0.00
2018-11-04T03:40:29.275Z,0.00
2018-11-04T03:41:29.297Z,0.00
2018-11-04T03:42:29.320Z,0.00
2018-11-04T03:43:29.343Z,0.00
2018-11-04T03:44:29.369Z,0.00
2018-11-04T03:45:29.388Z,0.00
2018-11-04T03:46:29.411Z,0.00
2018-11-04T03:47:29.436Z,0.00
2018-11-04T03:48:29.457Z,0.00
2018-11-04T03:49:29.487Z,0.00
2018-11-04T03:50:29.504Z,0.00
2018-11-04T03:51:29.527Z,0.00
2018-11-04T03:52:29.556Z,0.00
2018-11-04T03:53:29.572Z,0.00
2018-11-04T03:54:29.600Z,0.00
2018-11-04T03:55:29.617Z,0.00
2018-11-04T03:56:29.650Z,0.00
2018-11-04T03:57:29.664Z,0.00
2018-11-04T03:58:29.686Z,0.00
2018-11-04T03:59:29.708Z,0.00
2018-11-04T04:00:29.737Z,0.00
2018-11-04T04:01:29.756Z,0.00
2018-11-04T04:02:29.777Z,0.00
2018-11-04T04:03:29.802Z,0.00
2018-11-04T04:04:29.841Z,0.00
2018-11-04T04:05:29.848Z,0.00
2018-11-04T04:06:29.869Z,0.00
2018-11-04T04:07:29.892Z,0.00
2018-11-04T04:08:29.916Z,0.00
2018-11-04T04:09:29.938Z,0.00
2018-11-04T04:10:29.961Z,0.00
2018-11-04T04:11:29.985Z,0.00
2018-11-04T04:12:30.009Z,0.00
2018-11-04T04:13:30.035Z,0.00
2018-11-04T04:14:30.054Z,0.00
2018-11-04T04:15:30.080Z,0.00
2018-11-04T04:16:30.099Z,0.00
2018-11-04T04:17:30.123Z,0.00
2018-11-04T04:18:30.145Z,0.00
2018-11-04T04:19:30.169Z,0.00
2018-11-04T04:20:30.190Z,0.00
2018-11-04T04:21:30.215Z,0.00
2018-11-04T04:22:30.235Z,0.00
2018-11-04T04:23:30.259Z,0.00
2018-11-04T04:24:30.282Z,0.00
2018-11-04T04:25:30.305Z,0.00
2018-11-04T04:26:30.326Z,0.00
2018-11-04T04:27:30.352Z,0.00
2018-11-04T04:28:30.378Z,0.00
2018-11-04T04:29:30.397Z,0.00
2018-11-04T04:30:30.418Z,0.00
2018-11-04T04:31:30.442Z,0.00
2018-11-04T04:32:30.464Z,0.00
2018-11-04T04:33:30.488Z,0.00
2018-11-04T04:34:30.517Z,0.00
2018-11-04T04:35:30.534Z,0.00
2018-11-04T04:36:30.558Z,0.00
2018-11-04T04:37:30.580Z,0.00
2018-11-04T04:38:30.605Z,0.00
2018-11-04T04:39:30.626Z,0.00
2018-11-04T04:40:30.648Z,0.00
2018-11-04T04:41:30.672Z,0.00
2018-11-04T04:42:30.694Z,0.00
2018-11-04T04:43:30.720Z,0.00
2018-11-04T04:44:30.739Z,0.00
2018-11-04T04:45:30.766Z,0.00
2018-11-04T04:46:30.784Z,0.00
2018-11-04T04:47:30.811Z,0.00
2018-11-04T04:48:30.831Z,0.00
2018-11-04T04:49:30.854Z,0.00
2018-11-04T04:50:30.876Z,0.00
2018-11-04T04:51:30.899Z,0.00
2018-11-04T04:52:30.922Z,0.00
2018-11-04T04:53:30.945Z,0.00
2018-11-04T04:54:30.968Z,0.00
2018-11-04T04:55:30.990Z,0.00
2018-11-04T04:56:31.015Z,0.00
2018-11-04T04:57:31.037Z,0.00
2018-11-04T04:58:31.059Z,0.00
2018-11-04T04:59:31.082Z,0.00
2018-11-04T05:00:31.105Z,0.00
2018-11-04T05:01:31.130Z,0.00
2018-11-04T05:02:31.155Z,0.00
2018-11-04T05:03:31.175Z,0.00
2018-11-04T05:04:31.197Z,0.00
2018-11-04T05:05:31.221Z,0.00
2018-11-04T05:06:31.244Z,0.00
2018-11-04T05:07:31.269Z,0.00
2018-11-04T05:08:31.288Z,0.00
2018-11-04T05:09:31.312Z,0.00
2018-11-04T05:10:31.334Z,0.00
2018-11-04T05:11:31.357Z,0.00
2018-11-04T05:12:31.383Z,0.00
2018-11-04T05:13:31.403Z,0.00
2018-11-04T05:14:31.429Z,0.00
2018-11-04T05:15:31.449Z,0.00
2018-11-04T05:16:31.472Z,0.00
2018-11-04T05:17:31.495Z,0.00
2018-11-04T05:18:31.521Z,0.00
2018-11-04T05:19:31.545Z,0.00
2018-11-04T05:20:31.563Z,0.00
2018-11-04T05:21:31.587Z,0.00
2018-11-04T05:22:31.610Z,0.00
2018-11-04T05:23:31.631Z,0.00
2018-11-04T05:24:31.661Z,0.00
2018-11-04T05:25:31.677Z,0.00
2018-11-04T05:26:31.700Z,0.00
2018-11-04T05:27:31.729Z,0.00
2018-11-04T05:28:31.746Z,0.00
2018-11-04T05:29:31.769Z,0.00
2018-11-04T05:30:31.795Z,0.00
2018-11-04T05:31:31.815Z,0.00
2018-11-04T05:32:31.838Z,0.00
2018-11-04T05:33:31.861Z,0.00
2018-11-04T05:34:31.885Z,0.00
2018-11-04T05:35:31.909Z,0.00
2018-11-04T05:36:31.931Z,0.00
2018-11-04T05:37:31.953Z,0.00
2018-11-04T05:38:31.997Z,0.00
2018-11-04T05:39:32.000Z,0.00
2018-11-04T05:40:32.023Z,0.00
2018-11-04T05:41:32.045Z,0.00
2018-11-04T05:42:32.067Z,0.00
2018-11-04T05:43:32.093Z,0.00
2018-11-04T05:44:32.117Z,0.00
2018-11-04T05:45:32.137Z,0.00
2018-11-04T05:46:32.162Z,0.00
2018-11-04T05:47:32.183Z,0.00
2018-11-04T05:48:32.206Z,0.00
2018-11-04T05:49:32.228Z,0.00
2018-11-04T05:50:32.254Z,0.00
2018-11-04T05:51:32.275Z,0.00
2018-11-04T05:52:32.299Z,0.00
2018-11-04T05:53:32.321Z,0.00
2018-11-04T05:54:32.343Z,0.00
2018-11-04T05:55:32.366Z,0.00
2018-11-04T05:56:32.390Z,4.00
2018-11-04T05:57:32.413Z,4.00
2018-11-04T05:58:32.437Z,4.00
2018-11-04T05:59:32.459Z,0.00
2018-11-04T06:00:32.493Z,4.00
2018-11-04T06:01:32.506Z,4.00
2018-11-04T06:02:32.528Z,4.00
2018-11-04T06:03:32.559Z,8.00
2018-11-04T06:04:32.575Z,4.00
2018-11-04T06:05:32.598Z,8.00
2018-11-04T06:06:32.621Z,8.00
2018-11-04T06:07:32.644Z,8.00
2018-11-04T06:08:32.667Z,12.00
2018-11-04T06:09:32.692Z,12.00
2018-11-04T06:10:32.713Z,16.00
2018-11-04T06:11:32.738Z,20.00
2018-11-04T06:12:32.760Z,24.00
2018-11-04T06:13:32.783Z,28.00
2018-11-04T06:14:32.808Z,32.00
2018-11-04T06:15:32.832Z,32.00
2018-11-04T06:16:32.859Z,40.00
2018-11-04T06:17:32.879Z,48.00
2018-11-04T06:18:32.899Z,56.00
2018-11-04T06:19:32.989Z,56.00
2018-11-04T06:20:32.952Z,64.00
2018-11-04T06:21:32.971Z,68.00
2018-11-04T06:22:32.991Z,80.00
2018-11-04T06:23:33.015Z,80.00
2018-11-04T06:24:33.041Z,88.00
2018-11-04T06:25:33.062Z,92.00
2018-11-04T06:26:33.084Z,100.00
2018-11-04T06:27:33.108Z,108.00
2018-11-04T06:28:33.133Z,112.00
2018-11-04T06:29:33.159Z,124.00
2018-11-04T06:30:33.177Z,128.00
2018-11-04T06:31:33.200Z,140.00
2018-11-04T06:32:33.223Z,148.00
2018-11-04T06:33:33.250Z,160.00
2018-11-04T06:34:33.526Z,172.00
2018-11-04T06:35:33.293Z,184.00
2018-11-04T06:36:33.318Z,200.00
2018-11-04T06:37:33.340Z,212.00
2018-11-04T06:38:33.362Z,224.00
2018-11-04T06:39:33.388Z,236.00
2018-11-04T06:40:33.411Z,252.00
2018-11-04T06:41:33.434Z,268.00
2018-11-04T06:42:33.455Z,280.00
2018-11-04T06:43:33.480Z,292.00
2018-11-04T06:44:33.502Z,304.00
2018-11-04T06:45:33.527Z,320.00
2018-11-04T06:46:33.548Z,320.00
2018-11-04T06:47:33.603Z,324.00
2018-11-04T06:48:33.596Z,332.00
2018-11-04T06:49:33.618Z,340.00
2018-11-04T06:50:33.641Z,352.00
2018-11-04T06:51:33.665Z,372.00
2018-11-04T06:52:33.687Z,400.00
2018-11-04T06:53:33.713Z,432.00
2018-11-04T06:54:33.736Z,472.00
2018-11-04T06:55:33.757Z,500.00
2018-11-04T06:56:33.781Z,520.00
2018-11-04T06:57:33.804Z,536.00
2018-11-04T06:58:33.827Z,560.00
2018-11-04T06:59:33.850Z,584.00
2018-11-04T07:00:33.876Z,600.00
2018-11-04T07:01:33.904Z,608.00
2018-11-04T07:02:33.920Z,624.00
2018-11-04T07:03:33.944Z,652.00
2018-11-04T07:04:33.968Z,676.00
2018-11-04T07:05:33.992Z,676.00
2018-11-04T07:06:34.013Z,656.00
2018-11-04T07:07:34.038Z,640.00
2018-11-04T07:08:34.061Z,628.00
2018-11-04T07:09:34.084Z,628.00
2018-11-04T07:10:34.110Z,632.00
2018-11-04T07:11:34.131Z,660.00
2018-11-04T07:12:34.155Z,712.00
2018-11-04T07:13:34.181Z,760.00
2018-11-04T07:14:34.201Z,828.00
2018-11-04T07:15:34.224Z,884.00
2018-11-04T07:16:34.248Z,904.00
2018-11-04T07:17:34.271Z,884.00
2018-11-04T07:18:34.296Z,856.00
2018-11-04T07:19:34.317Z,828.00
2018-11-04T07:20:34.342Z,772.00
2018-11-04T07:21:34.365Z,744.00
2018-11-04T07:22:34.402Z,748.00
2018-11-04T07:23:34.410Z,740.00
2018-11-04T07:24:34.434Z,708.00
2018-11-04T07:25:34.512Z,696.00
2018-11-04T07:26:34.481Z,696.00
2018-11-04T07:27:34.507Z,700.00
2018-11-04T07:28:34.529Z,708.00
2018-11-04T07:29:34.552Z,716.00
2018-11-04T07:30:34.577Z,788.00
2018-11-04T07:31:34.599Z,888.00
2018-11-04T07:32:34.623Z,952.00
2018-11-04T07:33:34.646Z,972.00
2018-11-04T07:34:34.669Z,952.00
2018-11-04T07:35:34.692Z,924.00
2018-11-04T07:36:34.726Z,952.00
2018-11-04T07:37:34.743Z,952.00
2018-11-04T07:38:34.769Z,912.00
2018-11-04T07:39:34.786Z,900.00
2018-11-04T07:40:34.810Z,928.00
2018-11-04T07:41:34.834Z,956.00
2018-11-04T07:42:34.857Z,996.00
2018-11-04T07:43:34.885Z,1088.00
2018-11-04T07:44:34.905Z,1168.00
2018-11-04T07:45:34.928Z,1188.00
2018-11-04T07:46:34.953Z,1156.00
2018-11-04T07:47:34.975Z,1132.00
2018-11-04T07:48:34.999Z,1120.00
2018-11-04T07:49:35.023Z,1108.00
2018-11-04T07:50:35.141Z,1092.00
2018-11-04T07:51:35.149Z,1108.00
2018-11-04T07:52:35.095Z,1152.00
2018-11-04T07:53:35.118Z,1200.00
2018-11-04T07:54:35.144Z,1252.00
2018-11-04T07:55:35.163Z,1272.00
2018-11-04T07:56:35.187Z,1264.00
2018-11-04T07:57:35.214Z,1236.00
2018-11-04T07:58:35.234Z,1236.00
2018-11-04T07:59:35.259Z,1240.00
2018-11-04T08:00:35.281Z,1252.00
2018-11-04T08:01:35.306Z,1264.00
2018-11-04T08:02:35.330Z,1304.00
2018-11-04T08:03:35.386Z,1360.00
2018-11-04T08:04:35.377Z,1404.00
2018-11-04T08:05:35.400Z,1412.00
2018-11-04T08:06:35.424Z,1392.00
2018-11-04T08:07:35.447Z,1448.00
2018-11-04T08:08:35.475Z,1572.00
2018-11-04T08:09:35.495Z,1732.00
2018-11-04T08:10:35.518Z,1860.00
2018-11-04T08:11:35.543Z,1872.00
2018-11-04T08:12:35.567Z,1836.00
2018-11-04T08:13:35.743Z,1844.00
2018-11-04T08:14:35.613Z,1908.00
2018-11-04T08:15:35.637Z,1964.00
2018-11-04T08:16:35.665Z,1920.00
2018-11-04T08:17:35.686Z,1844.00
2018-11-04T08:18:35.711Z,1780.00
2018-11-04T08:19:35.732Z,1684.00
2018-11-04T08:20:35.758Z,1612.00
2018-11-04T08:21:35.780Z,1532.00
2018-11-04T08:22:35.804Z,1464.00
2018-11-04T08:23:35.828Z,1444.00
2018-11-04T08:24:35.854Z,1512.00
2018-11-04T08:25:35.875Z,1564.00
2018-11-04T08:26:35.904Z,1580.00
2018-11-04T08:27:35.983Z,1616.00
2018-11-04T08:28:35.948Z,1656.00
2018-11-04T08:29:35.972Z,1696.00
2018-11-04T08:30:35.999Z,1736.00
2018-11-04T08:31:36.024Z,1728.00
2018-11-04T08:32:36.085Z,1664.00
2018-11-04T08:33:36.068Z,1644.00
2018-11-04T08:34:36.093Z,1688.00
2018-11-04T08:35:36.117Z,1784.00
2018-11-04T08:36:36.141Z,1880.00
2018-11-04T08:37:36.164Z,1956.00
2018-11-04T08:38:36.188Z,2052.00
2018-11-04T08:39:36.223Z,2172.00
2018-11-04T08:40:36.237Z,2300.00
2018-11-04T08:41:36.262Z,2304.00
2018-11-04T08:42:36.284Z,2280.00
2018-11-04T08:43:36.309Z,2296.00
2018-11-04T08:44:36.333Z,2464.00
2018-11-04T08:45:36.366Z,2656.00
2018-11-04T08:46:36.381Z,2736.00
2018-11-04T08:47:36.405Z,2812.00
2018-11-04T08:48:36.430Z,2812.00
2018-11-04T08:49:36.462Z,2736.00
2018-11-04T08:50:36.478Z,2672.00
2018-11-04T08:51:36.503Z,2716.00
2018-11-04T08:52:36.575Z,2792.00
2018-11-04T08:53:36.564Z,2872.00
2018-11-04T08:54:36.581Z,2968.00
2018-11-04T08:55:36.600Z,3076.00
2018-11-04T08:56:36.625Z,3032.00
2018-11-04T08:57:36.651Z,2896.00
2018-11-04T08:58:36.673Z,2840.00
2018-11-04T08:59:36.698Z,2764.00
2018-11-04T09:00:36.722Z,2732.00
2018-11-04T09:01:36.748Z,2784.00
2018-11-04T09:02:36.771Z,2952.00
2018-11-04T09:03:36.796Z,3132.00
2018-11-04T09:04:36.821Z,3256.00
2018-11-04T09:05:36.846Z,3320.00
2018-11-04T09:06:36.959Z,3436.00
2018-11-04T09:07:36.894Z,3592.00
2018-11-04T09:08:36.918Z,3648.00
2018-11-04T09:09:36.944Z,3496.00
2018-11-04T09:10:36.968Z,3400.00
2018-11-04T09:11:36.991Z,3440.00
2018-11-04T09:12:37.017Z,3556.00
2018-11-04T09:13:37.049Z,3576.00
2018-11-04T09:14:37.066Z,3408.00
2018-11-04T09:15:37.090Z,3280.00
2018-11-04T09:16:37.116Z,3244.00
2018-11-04T09:17:37.140Z,3268.00
2018-11-04T09:18:37.163Z,3332.00
2018-11-04T09:19:37.190Z,3344.00
2018-11-04T09:20:37.213Z,3372.00
2018-11-04T09:21:37.325Z,3452.00
2018-11-04T09:22:37.434Z,3576.00
2018-11-04T09:23:37.344Z,3760.00
2018-11-04T09:24:37.312Z,3988.00
2018-11-04T09:25:37.337Z,4168.00
2018-11-04T09:26:37.361Z,4296.00
2018-11-04T09:27:37.392Z,4364.00
2018-11-04T09:28:37.412Z,4180.00
2018-11-04T09:29:37.436Z,3956.00
2018-11-04T09:30:37.461Z,3916.00
2018-11-04T09:31:37.485Z,4004.00
2018-11-04T09:32:37.511Z,3984.00
2018-11-04T09:33:37.536Z,3868.00
2018-11-04T09:34:37.632Z,3840.00
2018-11-04T09:35:37.730Z,3984.00
2018-11-04T09:36:37.699Z,4188.00
2018-11-04T09:37:37.635Z,4332.00
2018-11-04T09:38:37.659Z,4348.00
2018-11-04T09:39:37.682Z,4288.00
2018-11-04T09:40:37.708Z,4316.00
2018-11-04T09:41:37.735Z,4372.00
2018-11-04T09:42:37.759Z,4252.00
2018-11-04T09:43:37.831Z,4064.00
2018-11-04T09:44:37.808Z,3720.00
2018-11-04T09:45:37.835Z,3520.00
2018-11-04T09:46:37.857Z,3568.00
2018-11-04T09:47:37.883Z,3656.00
2018-11-04T09:48:37.909Z,3560.00
2018-11-04T09:49:37.934Z,3484.00
2018-11-04T09:50:37.959Z,3412.00
2018-11-04T09:51:37.983Z,3456.00
2018-11-04T09:52:38.011Z,3528.00
2018-11-04T09:53:38.040Z,3552.00
2018-11-04T09:54:38.059Z,3496.00
2018-11-04T09:55:38.086Z,3496.00
2018-11-04T09:56:38.209Z,3708.00
2018-11-04T09:57:38.134Z,4076.00
2018-11-04T09:58:38.159Z,4528.00
2018-11-04T09:59:38.184Z,4936.00
2018-11-04T10:00:38.210Z,5088.00
2018-11-04T10:01:38.236Z,5152.00
2018-11-04T10:02:38.260Z,5228.00
2018-11-04T10:03:38.284Z,5304.00
2018-11-04T10:04:38.309Z,5412.00
2018-11-04T10:05:38.335Z,5624.00
2018-11-04T10:06:38.360Z,5684.00
2018-11-04T10:07:38.384Z,5448.00
2018-11-04T10:08:38.411Z,5152.00
2018-11-04T10:09:38.437Z,4988.00
2018-11-04T10:10:38.460Z,4988.00
2018-11-04T10:11:38.485Z,4864.00
2018-11-04T10:12:38.511Z,4732.00
2018-11-04T10:13:38.537Z,4756.00
2018-11-04T10:14:38.561Z,4820.00
2018-11-04T10:15:38.588Z,4872.00
2018-11-04T10:16:38.612Z,4988.00
2018-11-04T10:17:38.637Z,5056.00
2018-11-04T10:18:38.708Z,4968.00
2018-11-04T10:19:38.832Z,4772.00
2018-11-04T10:20:39.009Z,4608.00
2018-11-04T10:21:38.738Z,4532.00
2018-11-04T10:22:38.767Z,4420.00
2018-11-04T10:23:38.792Z,4360.00
2018-11-04T10:24:38.814Z,4580.00
2018-11-04T10:25:38.841Z,4884.00
2018-11-04T10:26:38.865Z,5012.00
2018-11-04T10:27:38.891Z,4904.00
2018-11-04T10:28:38.917Z,4688.00
2018-11-04T10:29:38.942Z,4516.00
2018-11-04T10:30:38.972Z,4368.00
2018-11-04T10:31:38.993Z,4348.00
2018-11-04T10:32:39.020Z,4528.00
2018-11-04T10:33:39.044Z,4828.00
2018-11-04T10:34:39.071Z,5192.00
2018-11-04T10:35:39.097Z,5404.00
2018-11-04T10:36:39.121Z,5396.00
2018-11-04T10:37:39.147Z,5200.00
2018-11-04T10:38:39.172Z,4988.00
2018-11-04T10:39:39.198Z,5040.00
2018-11-04T10:40:39.223Z,5084.00
2018-11-04T10:41:39.249Z,4992.00
2018-11-04T10:42:39.274Z,4684.00
2018-11-04T10:43:39.300Z,4528.00
2018-11-04T10:44:39.326Z,4576.00
2018-11-04T10:45:39.351Z,4532.00
2018-11-04T10:46:39.375Z,4428.00
2018-11-04T10:47:39.401Z,4180.00
2018-11-04T10:48:39.431Z,4000.00
2018-11-04T10:49:39.465Z,3800.00
2018-11-04T10:50:39.480Z,3612.00
2018-11-04T10:51:39.508Z,3508.00
2018-11-04T10:52:39.531Z,3504.00
2018-11-04T10:53:39.558Z,3576.00
2018-11-04T10:54:39.583Z,3620.00
2018-11-04T10:55:39.682Z,3464.00
2018-11-04T10:56:39.633Z,3184.00
2018-11-04T10:57:39.659Z,2992.00
2018-11-04T10:58:39.685Z,2924.00
2018-11-04T10:59:39.710Z,2860.00
2018-11-04T11:00:39.738Z,2832.00
2018-11-04T11:01:39.763Z,2956.00
2018-11-04T11:02:39.787Z,3120.00
2018-11-04T11:03:39.813Z,3284.00
2018-11-04T11:04:39.923Z,3388.00
2018-11-04T11:05:39.866Z,3352.00
2018-11-04T11:06:39.890Z,3284.00
2018-11-04T11:07:39.916Z,3308.00
2018-11-04T11:08:39.942Z,3440.00
2018-11-04T11:09:39.969Z,3640.00
2018-11-04T11:10:39.993Z,3808.00
2018-11-04T11:11:40.019Z,3952.00
2018-11-04T11:12:40.048Z,4040.00
2018-11-04T11:13:40.071Z,4040.00
2018-11-04T11:14:40.096Z,4040.00
2018-11-04T11:15:40.123Z,4176.00
2018-11-04T11:16:40.148Z,4424.00
2018-11-04T11:17:40.175Z,4636.00
2018-11-04T11:18:40.199Z,4668.00
2018-11-04T11:19:40.225Z,4604.00
2018-11-04T11:20:40.251Z,4408.00
2018-11-04T11:21:40.278Z,4392.00
2018-11-04T11:22:40.380Z,4372.00
2018-11-04T11:23:40.330Z,4372.00
2018-11-04T11:24:40.355Z,4436.00
2018-11-04T11:25:40.382Z,4548.00
2018-11-04T11:26:40.407Z,4716.00
2018-11-04T11:27:40.433Z,4716.00
2018-11-04T11:28:40.458Z,4480.00
2018-11-04T11:29:40.491Z,4416.00
2018-11-04T11:30:40.510Z,4508.00
2018-11-04T11:31:40.536Z,4508.00
2018-11-04T11:32:40.563Z,4336.00
2018-11-04T11:33:40.588Z,4100.00
2018-11-04T11:34:40.614Z,3996.00
2018-11-04T11:35:40.640Z,3956.00
2018-11-04T11:36:40.666Z,3996.00
2018-11-04T11:37:40.753Z,4092.00
2018-11-04T11:38:40.719Z,4236.00
2018-11-04T11:39:40.743Z,4276.00
2018-11-04T11:40:40.773Z,4224.00
2018-11-04T11:41:40.809Z,4108.00
2018-11-04T11:42:40.822Z,4036.00
2018-11-04T11:43:40.847Z,3932.00
2018-11-04T11:44:40.893Z,3824.00
2018-11-04T11:45:40.899Z,3832.00
2018-11-04T11:46:40.925Z,3968.00
2018-11-04T11:47:40.957Z,4124.00
2018-11-04T11:48:40.982Z,4232.00
2018-11-04T11:49:41.003Z,4380.00
2018-11-04T11:50:41.030Z,4560.00
2018-11-04T11:51:41.055Z,4616.00
2018-11-04T11:52:41.145Z,4492.00
2018-11-04T11:53:41.111Z,4332.00
2018-11-04T11:54:41.134Z,4268.00
2018-11-04T11:55:41.160Z,4184.00
2018-11-04T11:56:41.184Z,4152.00
2018-11-04T11:57:41.210Z,4108.00
2018-11-04T11:58:41.235Z,4216.00
2018-11-04T11:59:41.263Z,4384.00
2018-11-04T12:00:41.290Z,4480.00
2018-11-04T12:01:41.314Z,4420.00
2018-11-04T12:02:41.339Z,4288.00
2018-11-04T12:03:41.365Z,4056.00
2018-11-04T12:04:41.391Z,3956.00
2018-11-04T12:05:41.422Z,3852.00
2018-11-04T12:06:41.444Z,3660.00
2018-11-04T12:07:41.468Z,3496.00
2018-11-04T12:08:41.497Z,3500.00
2018-11-04T12:09:41.520Z,3576.00
2018-11-04T12:10:41.545Z,3748.00
2018-11-04T12:11:41.572Z,3968.00
2018-11-04T12:12:41.598Z,4164.00
2018-11-04T12:13:41.623Z,4356.00
2018-11-04T12:14:41.649Z,4412.00
2018-11-04T12:15:41.676Z,4180.00
2018-11-04T12:16:41.703Z,4176.00
2018-11-04T12:17:41.762Z,4320.00
2018-11-04T12:18:41.751Z,4460.00
2018-11-04T12:19:41.778Z,4476.00
2018-11-04T12:20:41.847Z,4452.00
2018-11-04T12:21:41.843Z,4412.00
2018-11-04T12:22:41.891Z,4440.00
2018-11-04T12:23:41.905Z,4404.00
2018-11-04T12:24:41.907Z,4204.00
2018-11-04T12:25:41.933Z,4096.00
2018-11-04T12:26:41.958Z,4072.00
2018-11-04T12:27:41.986Z,4072.00
2018-11-04T12:28:42.010Z,4064.00
2018-11-04T12:29:42.041Z,4028.00
2018-11-04T12:30:42.063Z,3932.00
2018-11-04T12:31:42.089Z,3948.00
2018-11-04T12:32:42.117Z,4052.00
2018-11-04T12:33:42.140Z,4108.00
2018-11-04T12:34:42.178Z,4108.00
2018-11-04T12:35:42.193Z,4160.00
2018-11-04T12:36:42.218Z,4256.00
2018-11-04T12:37:42.244Z,4476.00
2018-11-04T12:38:42.271Z,4652.00
2018-11-04T12:39:42.296Z,4720.00
2018-11-04T12:40:42.322Z,4664.00
2018-11-04T12:41:42.352Z,4644.00
2018-11-04T12:42:42.379Z,4680.00